createdAt,value
2018-06-16T00:00:06.666Z,1012.49
2018-06-16T00:00:47.234Z,1012.5
2018-06-16T00:01:27.804Z,1012.51
2018-06-16T00:02:08.376Z,1012.51
2018-06-16T00:02:48.949Z,1012.5
2018-06-16T00:03:29.521Z,1012.49
2018-06-16T00:04:10.088Z,1012.5
2018-06-16T00:04:50.650Z,1012.51
2018-06-16T00:05:31.205Z,1012.5
2018-06-16T00:06:11.809Z,1012.49
2018-06-16T00:06:52.403Z,1012.45
2018-06-16T00:07:32.942Z,1012.48
2018-06-16T00:08:13.543Z,1012.47
2018-06-16T00:08:54.113Z,1012.46
2018-06-16T00:09:34.678Z,1012.44
2018-06-16T00:10:15.252Z,1012.44
2018-06-16T00:10:55.808Z,1012.46
2018-06-16T00:11:36.518Z,1012.44
2018-06-16T00:12:17.077Z,1012.45
2018-06-16T00:12:57.640Z,1012.43
2018-06-16T00:13:38.200Z,1012.45
2018-06-16T00:14:18.765Z,1012.49
2018-06-16T00:14:59.327Z,1012.47
2018-06-16T00:15:39.899Z,1012.49
2018-06-16T00:16:20.456Z,1012.45
2018-06-16T00:17:01.020Z,1012.46
2018-06-16T00:17:41.585Z,1012.52
2018-06-16T00:18:22.164Z,1012.47
2018-06-16T00:19:02.724Z,1012.46
2018-06-16T00:19:43.297Z,1012.45
2018-06-16T00:20:23.856Z,1012.47
2018-06-16T00:21:04.440Z,1012.48
2018-06-16T00:21:45.008Z,1012.48
2018-06-16T00:22:25.580Z,1012.5
2018-06-16T00:23:06.145Z,1012.49
2018-06-16T00:23:46.714Z,1012.48
2018-06-16T00:24:27.268Z,1012.46
2018-06-16T00:25:07.847Z,1012.46
2018-06-16T00:25:48.420Z,1012.51
2018-06-16T00:26:28.972Z,1012.54
2018-06-16T00:27:09.542Z,1012.5
2018-06-16T00:27:50.094Z,1012.51
2018-06-16T00:28:30.657Z,1012.57
2018-06-16T00:29:11.217Z,1012.54
2018-06-16T00:29:51.777Z,1012.56
2018-06-16T00:30:32.344Z,1012.57
2018-06-16T00:31:12.912Z,1012.53
2018-06-16T00:31:53.486Z,1012.58
2018-06-16T00:32:34.220Z,1012.57
2018-06-16T00:33:14.788Z,1012.57
2018-06-16T00:33:55.356Z,1012.53
2018-06-16T00:34:35.924Z,1012.57
2018-06-16T00:35:16.483Z,1012.56
2018-06-16T00:35:57.060Z,1012.56
2018-06-16T00:36:37.627Z,1012.56
2018-06-16T00:37:18.193Z,1012.55
2018-06-16T00:37:58.761Z,1012.6
2018-06-16T00:38:39.324Z,1012.59
2018-06-16T00:39:19.890Z,1012.58
2018-06-16T00:40:00.445Z,1012.59
2018-06-16T00:40:41.048Z,1012.58
2018-06-16T00:41:21.702Z,1012.58
2018-06-16T00:42:02.176Z,1012.52
2018-06-16T00:42:42.747Z,1012.58
2018-06-16T00:43:23.314Z,1012.54
2018-06-16T00:44:03.883Z,1012.54
2018-06-16T00:44:44.463Z,1012.52
2018-06-16T00:45:25.029Z,1012.52
2018-06-16T00:46:05.576Z,1012.54
2018-06-16T00:46:46.148Z,1012.54
2018-06-16T00:47:26.688Z,1012.56
2018-06-16T00:48:07.250Z,1012.57
2018-06-16T00:48:47.824Z,1012.52
2018-06-16T00:49:28.391Z,1012.56
2018-06-16T00:50:08.959Z,1012.56
2018-06-16T00:50:49.540Z,1012.58
2018-06-16T00:51:30.134Z,1012.59
2018-06-16T00:52:10.705Z,1012.59
2018-06-16T00:52:51.295Z,1012.62
2018-06-16T00:53:31.835Z,1012.62
2018-06-16T00:54:12.383Z,1012.59
2018-06-16T00:54:52.941Z,1012.62
2018-06-16T00:55:33.507Z,1012.63
2018-06-16T00:56:14.065Z,1012.62
2018-06-16T00:56:54.610Z,1012.6
2018-06-16T00:57:35.172Z,1012.61
2018-06-16T00:58:15.742Z,1012.62
2018-06-16T00:58:56.303Z,1012.65
2018-06-16T00:59:36.863Z,1012.63
2018-06-16T01:00:17.433Z,1012.62
2018-06-16T01:00:57.998Z,1012.6
2018-06-16T01:01:38.564Z,1012.62
2018-06-16T01:02:19.125Z,1012.63
2018-06-16T01:02:59.678Z,1012.59
2018-06-16T01:03:40.224Z,1012.62
2018-06-16T01:04:20.777Z,1012.61
2018-06-16T01:05:01.351Z,1012.64
2018-06-16T01:05:41.915Z,1012.65
2018-06-16T01:06:22.494Z,1012.64
2018-06-16T01:07:03.075Z,1012.64
2018-06-16T01:07:43.658Z,1012.6
2018-06-16T01:08:24.237Z,1012.64
2018-06-16T01:09:04.801Z,1012.65
2018-06-16T01:09:45.373Z,1012.69
2018-06-16T01:10:25.940Z,1012.66
2018-06-16T01:11:06.481Z,1012.66
2018-06-16T01:11:47.053Z,1012.69
2018-06-16T01:12:27.629Z,1012.69
2018-06-16T01:13:08.200Z,1012.7
2018-06-16T01:13:48.751Z,1012.68
2018-06-16T01:14:29.320Z,1012.64
2018-06-16T01:15:09.885Z,1012.64
2018-06-16T01:15:50.433Z,1012.65
2018-06-16T01:16:30.998Z,1012.61
2018-06-16T01:17:11.542Z,1012.63
2018-06-16T01:17:52.096Z,1012.59
2018-06-16T01:18:32.646Z,1012.66
2018-06-16T01:19:13.225Z,1012.61
2018-06-16T01:19:53.793Z,1012.63
2018-06-16T01:20:34.350Z,1012.67
2018-06-16T01:21:14.927Z,1012.63
2018-06-16T01:21:55.489Z,1012.59
2018-06-16T01:22:36.049Z,1012.63
2018-06-16T01:23:16.602Z,1012.6
2018-06-16T01:23:57.179Z,1012.63
2018-06-16T01:24:37.739Z,1012.6
2018-06-16T01:25:18.321Z,1012.59
2018-06-16T01:25:58.879Z,1012.6
2018-06-16T01:26:39.438Z,1012.58
2018-06-16T01:27:20.007Z,1012.57
2018-06-16T01:28:00.570Z,1012.56
2018-06-16T01:28:41.149Z,1012.57
2018-06-16T01:29:21.705Z,1012.59
2018-06-16T01:30:02.271Z,1012.58
2018-06-16T01:30:42.844Z,1012.59
2018-06-16T01:31:23.404Z,1012.57
2018-06-16T01:32:03.970Z,1012.57
2018-06-16T01:32:44.515Z,1012.58
2018-06-16T01:33:25.074Z,1012.57
2018-06-16T01:34:05.646Z,1012.55
2018-06-16T01:34:46.213Z,1012.55
2018-06-16T01:35:26.792Z,1012.56
2018-06-16T01:36:07.347Z,1012.54
2018-06-16T01:36:47.980Z,1012.54
2018-06-16T01:37:28.550Z,1012.54
2018-06-16T01:38:09.182Z,1012.53
2018-06-16T01:38:49.750Z,1012.52
2018-06-16T01:39:30.383Z,1012.46
2018-06-16T01:40:10.954Z,1012.53
2018-06-16T01:40:51.521Z,1012.51
2018-06-16T01:41:32.081Z,1012.5
2018-06-16T01:42:12.653Z,1012.5
2018-06-16T01:42:53.258Z,1012.51
2018-06-16T01:43:33.828Z,1012.48
2018-06-16T01:44:14.396Z,1012.51
2018-06-16T01:44:54.947Z,1012.52
2018-06-16T01:45:35.516Z,1012.48
2018-06-16T01:46:16.093Z,1012.49
2018-06-16T01:46:56.665Z,1012.47
2018-06-16T01:47:37.236Z,1012.48
2018-06-16T01:48:17.811Z,1012.47
2018-06-16T01:48:58.371Z,1012.49
2018-06-16T01:49:38.947Z,1012.51
2018-06-16T01:50:19.512Z,1012.49
2018-06-16T01:51:00.081Z,1012.51
2018-06-16T01:51:40.645Z,1012.52
2018-06-16T01:52:21.204Z,1012.53
2018-06-16T01:53:01.755Z,1012.54
2018-06-16T01:53:42.325Z,1012.55
2018-06-16T01:54:22.878Z,1012.52
2018-06-16T01:55:03.452Z,1012.56
2018-06-16T01:55:44.023Z,1012.56
2018-06-16T01:56:24.589Z,1012.55
2018-06-16T01:57:05.156Z,1012.54
2018-06-16T01:57:45.716Z,1012.55
2018-06-16T01:58:26.325Z,1012.52
2018-06-16T01:59:06.923Z,1012.56
2018-06-16T01:59:47.501Z,1012.52
2018-06-16T02:00:28.070Z,1012.55
2018-06-16T02:01:08.639Z,1012.51
2018-06-16T02:01:49.211Z,1012.56
2018-06-16T02:02:29.773Z,1012.54
2018-06-16T02:03:10.320Z,1012.54
2018-06-16T02:03:50.874Z,1012.56
2018-06-16T02:04:31.441Z,1012.51
2018-06-16T02:05:12.010Z,1012.51
2018-06-16T02:05:52.580Z,1012.5
2018-06-16T02:06:33.150Z,1012.49
2018-06-16T02:07:13.705Z,1012.53
2018-06-16T02:07:54.335Z,1012.48
2018-06-16T02:08:34.904Z,1012.48
2018-06-16T02:09:15.446Z,1012.46
2018-06-16T02:09:56.015Z,1012.44
2018-06-16T02:10:36.575Z,1012.42
2018-06-16T02:11:17.140Z,1012.42
2018-06-16T02:11:57.715Z,1012.39
2018-06-16T02:12:38.281Z,1012.41
2018-06-16T02:13:18.856Z,1012.39
2018-06-16T02:13:59.426Z,1012.38
2018-06-16T02:14:39.997Z,1012.36
2018-06-16T02:15:20.557Z,1012.34
2018-06-16T02:16:01.119Z,1012.4
2018-06-16T02:16:41.686Z,1012.35
2018-06-16T02:17:22.248Z,1012.37
2018-06-16T02:18:02.810Z,1012.31
2018-06-16T02:18:43.372Z,1012.37
2018-06-16T02:19:23.934Z,1012.39
2018-06-16T02:20:04.496Z,1012.35
2018-06-16T02:20:45.073Z,1012.31
2018-06-16T02:21:25.631Z,1012.35
2018-06-16T02:22:06.191Z,1012.36
2018-06-16T02:22:46.766Z,1012.32
2018-06-16T02:23:27.338Z,1012.31
2018-06-16T02:24:07.917Z,1012.31
2018-06-16T02:24:48.491Z,1012.3
2018-06-16T02:25:29.048Z,1012.3
2018-06-16T02:26:09.621Z,1012.33
2018-06-16T02:26:50.187Z,1012.32
2018-06-16T02:27:30.761Z,1012.33
2018-06-16T02:28:11.325Z,1012.33
2018-06-16T02:28:51.885Z,1012.3
2018-06-16T02:29:32.474Z,1012.35
2018-06-16T02:30:13.016Z,1012.36
2018-06-16T02:30:53.579Z,1012.33
2018-06-16T02:31:34.147Z,1012.32
2018-06-16T02:32:14.703Z,1012.28
2018-06-16T02:32:55.283Z,1012.28
2018-06-16T02:33:35.838Z,1012.33
2018-06-16T02:34:16.414Z,1012.33
2018-06-16T02:34:56.989Z,1012.31
2018-06-16T02:35:37.538Z,1012.32
2018-06-16T02:36:18.116Z,1012.32
2018-06-16T02:36:58.699Z,1012.31
2018-06-16T02:37:39.260Z,1012.29
2018-06-16T02:38:19.827Z,1012.35
2018-06-16T02:39:00.397Z,1012.29
2018-06-16T02:39:40.967Z,1012.28
2018-06-16T02:40:21.545Z,1012.29
2018-06-16T02:41:02.125Z,1012.32
2018-06-16T02:41:42.682Z,1012.29
2018-06-16T02:42:23.252Z,1012.31
2018-06-16T02:43:03.819Z,1012.31
2018-06-16T02:43:44.375Z,1012.26
2018-06-16T02:44:24.951Z,1012.27
2018-06-16T02:45:05.529Z,1012.27
2018-06-16T02:45:46.097Z,1012.3
2018-06-16T02:46:26.662Z,1012.29
2018-06-16T02:47:07.224Z,1012.29
2018-06-16T02:47:47.784Z,1012.26
2018-06-16T02:48:28.342Z,1012.27
2018-06-16T02:49:08.912Z,1012.33
2018-06-16T02:49:49.472Z,1012.32
2018-06-16T02:50:30.167Z,1012.31
2018-06-16T02:51:10.597Z,1012.34
2018-06-16T02:51:51.216Z,1012.33
2018-06-16T02:52:31.801Z,1012.32
2018-06-16T02:53:12.365Z,1012.33
2018-06-16T02:53:52.913Z,1012.33
2018-06-16T02:54:33.480Z,1012.3
2018-06-16T02:55:14.031Z,1012.32
2018-06-16T02:55:54.612Z,1012.35
2018-06-16T02:56:35.183Z,1012.3
2018-06-16T02:57:15.754Z,1012.36
2018-06-16T02:57:56.323Z,1012.33
2018-06-16T02:58:36.945Z,1012.3
2018-06-16T02:59:17.478Z,1012.35
2018-06-16T02:59:58.040Z,1012.32
2018-06-16T03:00:38.608Z,1012.34
2018-06-16T03:01:19.177Z,1012.33
2018-06-16T03:01:59.739Z,1012.38
2018-06-16T03:02:40.298Z,1012.37
2018-06-16T03:03:21.026Z,1012.38
2018-06-16T03:04:01.425Z,1012.34
2018-06-16T03:04:41.990Z,1012.37
2018-06-16T03:05:22.553Z,1012.38
2018-06-16T03:06:03.116Z,1012.35
2018-06-16T03:06:43.677Z,1012.38
2018-06-16T03:07:24.240Z,1012.4
2018-06-16T03:08:04.805Z,1012.39
2018-06-16T03:08:45.378Z,1012.41
2018-06-16T03:09:25.943Z,1012.43
2018-06-16T03:10:06.515Z,1012.38
2018-06-16T03:10:47.086Z,1012.38
2018-06-16T03:11:27.664Z,1012.34
2018-06-16T03:12:08.224Z,1012.35
2018-06-16T03:12:48.780Z,1012.34
2018-06-16T03:13:29.361Z,1012.32
2018-06-16T03:14:09.916Z,1012.33
2018-06-16T03:14:50.491Z,1012.33
2018-06-16T03:15:31.076Z,1012.34
2018-06-16T03:16:11.635Z,1012.29
2018-06-16T03:16:52.237Z,1012.39
2018-06-16T03:17:32.771Z,1012.36
2018-06-16T03:18:13.340Z,1012.32
2018-06-16T03:18:53.892Z,1012.32
2018-06-16T03:19:34.447Z,1012.32
2018-06-16T03:20:15.019Z,1012.33
2018-06-16T03:20:55.577Z,1012.31
2018-06-16T03:21:36.128Z,1012.33
2018-06-16T03:22:16.680Z,1012.33
2018-06-16T03:22:57.253Z,1012.34
2018-06-16T03:23:37.891Z,1012.32
2018-06-16T03:24:18.412Z,1012.32
2018-06-16T03:24:58.956Z,1012.32
2018-06-16T03:25:39.511Z,1012.33
2018-06-16T03:26:20.078Z,1012.33
2018-06-16T03:27:00.649Z,1012.31
2018-06-16T03:27:41.242Z,1012.3
2018-06-16T03:28:21.802Z,1012.28
2018-06-16T03:29:02.368Z,1012.28
2018-06-16T03:29:42.922Z,1012.26
2018-06-16T03:30:23.481Z,1012.25
2018-06-16T03:31:04.056Z,1012.26
2018-06-16T03:31:44.605Z,1012.26
2018-06-16T03:32:25.167Z,1012.27
2018-06-16T03:33:05.740Z,1012.22
2018-06-16T03:33:46.299Z,1012.23
2018-06-16T03:34:26.872Z,1012.25
2018-06-16T03:35:07.432Z,1012.24
2018-06-16T03:35:47.996Z,1012.3
2018-06-16T03:36:28.626Z,1012.25
2018-06-16T03:37:09.159Z,1012.24
2018-06-16T03:37:49.732Z,1012.25
2018-06-16T03:38:30.282Z,1012.26
2018-06-16T03:39:10.843Z,1012.23
2018-06-16T03:39:51.401Z,1012.28
2018-06-16T03:40:31.959Z,1012.23
2018-06-16T03:41:12.531Z,1012.28
2018-06-16T03:41:53.095Z,1012.29
2018-06-16T03:42:33.699Z,1012.27
2018-06-16T03:43:14.227Z,1012.29
2018-06-16T03:43:59.360Z,1012.29
2018-06-16T03:47:54.870Z,1012.3
2018-06-16T03:48:35.432Z,1012.28
2018-06-16T03:49:15.996Z,1012.33
2018-06-16T03:49:56.572Z,1012.31
2018-06-16T03:50:37.124Z,1012.28
2018-06-16T03:51:17.673Z,1012.35
2018-06-16T03:51:58.227Z,1012.33
2018-06-16T03:52:38.781Z,1012.3
2018-06-16T03:53:19.399Z,1012.27
2018-06-16T03:53:59.954Z,1012.3
2018-06-16T03:54:40.518Z,1012.29
2018-06-16T03:55:21.071Z,1012.3
2018-06-16T03:56:01.633Z,1012.29
2018-06-16T03:56:42.194Z,1012.32
2018-06-16T03:57:22.739Z,1012.31
2018-06-16T03:58:03.294Z,1012.33
2018-06-16T03:58:43.847Z,1012.32
2018-06-16T03:59:24.980Z,1012.29
2018-06-16T04:00:07.078Z,1012.26
2018-06-16T04:00:47.629Z,1012.29
2018-06-16T04:01:28.192Z,1012.31
2018-06-16T04:02:08.743Z,1012.32
2018-06-16T04:02:49.403Z,1012.27
2018-06-16T04:03:29.951Z,1012.34
2018-06-16T04:04:10.506Z,1012.31
2018-06-16T04:04:51.055Z,1012.32
2018-06-16T04:05:31.604Z,1012.32
2018-06-16T04:06:12.155Z,1012.31
2018-06-16T04:06:52.708Z,1012.32
2018-06-16T04:07:33.266Z,1012.29
2018-06-16T04:08:13.839Z,1012.37
2018-06-16T04:08:54.398Z,1012.36
2018-06-16T04:09:34.956Z,1012.37
2018-06-16T04:10:15.524Z,1012.37
2018-06-16T04:10:56.072Z,1012.36
2018-06-16T04:11:36.669Z,1012.36
2018-06-16T04:12:17.244Z,1012.41
2018-06-16T04:12:57.831Z,1012.36
2018-06-16T04:13:38.395Z,1012.38
2018-06-16T04:14:18.958Z,1012.37
2018-06-16T04:14:59.519Z,1012.35
2018-06-16T04:15:40.066Z,1012.37
2018-06-16T04:16:20.653Z,1012.39
2018-06-16T04:17:01.215Z,1012.34
2018-06-16T04:17:41.776Z,1012.33
2018-06-16T04:18:22.350Z,1012.35
2018-06-16T04:19:02.942Z,1012.36
2018-06-16T04:19:43.476Z,1012.32
2018-06-16T04:20:24.042Z,1012.34
2018-06-16T04:21:04.611Z,1012.32
2018-06-16T04:21:45.185Z,1012.37
2018-06-16T04:22:25.745Z,1012.32
2018-06-16T04:23:06.296Z,1012.39
2018-06-16T04:23:46.860Z,1012.33
2018-06-16T04:24:27.426Z,1012.35
2018-06-16T04:25:07.974Z,1012.39
2018-06-16T04:25:48.534Z,1012.33
2018-06-16T04:26:29.089Z,1012.34
2018-06-16T04:27:09.670Z,1012.35
2018-06-16T04:27:50.240Z,1012.4
2018-06-16T04:28:30.826Z,1012.34
2018-06-16T04:29:11.364Z,1012.34
2018-06-16T04:31:24.180Z,1012.35
2018-06-16T04:32:04.725Z,1012.34
2018-06-16T04:32:45.276Z,1012.32
2018-06-16T04:33:25.828Z,1012.31
2018-06-16T04:34:06.382Z,1012.33
2018-06-16T04:34:46.964Z,1012.35
2018-06-16T04:35:27.488Z,1012.31
2018-06-16T04:36:08.037Z,1012.34
2018-06-16T04:36:48.571Z,1012.3
2018-06-16T04:37:29.130Z,1012.34
2018-06-16T04:38:09.672Z,1012.33
2018-06-16T04:38:50.233Z,1012.29
2018-06-16T04:39:30.780Z,1012.3
2018-06-16T04:40:11.338Z,1012.26
2018-06-16T04:40:51.883Z,1012.25
2018-06-16T04:41:32.444Z,1012.3
2018-06-16T04:42:13.005Z,1012.25
2018-06-16T04:42:53.562Z,1012.27
2018-06-16T04:43:34.134Z,1012.27
2018-06-16T04:44:14.687Z,1012.23
2018-06-16T04:44:55.248Z,1012.24
2018-06-16T04:45:35.867Z,1012.26
2018-06-16T04:46:16.392Z,1012.27
2018-06-16T04:46:56.992Z,1012.25
2018-06-16T04:47:37.551Z,1012.26
2018-06-16T04:48:18.131Z,1012.27
2018-06-16T04:48:58.681Z,1012.23
2018-06-16T04:49:39.266Z,1012.29
2018-06-16T04:50:19.835Z,1012.25
2018-06-16T04:51:00.382Z,1012.26
2018-06-16T04:51:40.952Z,1012.28
2018-06-16T04:52:21.526Z,1012.26
2018-06-16T04:53:02.096Z,1012.29
2018-06-16T04:53:42.653Z,1012.26
2018-06-16T04:54:23.223Z,1012.24
2018-06-16T04:55:03.802Z,1012.24
2018-06-16T04:55:44.368Z,1012.26
2018-06-16T04:56:24.935Z,1012.24
2018-06-16T04:57:05.483Z,1012.24
2018-06-16T04:57:46.019Z,1012.24
2018-06-16T04:58:26.579Z,1012.26
2018-06-16T04:59:07.144Z,1012.27
2018-06-16T04:59:47.708Z,1012.23
2018-06-16T05:00:28.267Z,1012.19
2018-06-16T05:01:08.817Z,1012.23
2018-06-16T05:01:49.366Z,1012.25
2018-06-16T05:02:29.932Z,1012.22
2018-06-16T05:03:10.484Z,1012.28
2018-06-16T05:03:51.037Z,1012.26
2018-06-16T05:04:31.613Z,1012.22
2018-06-16T05:05:12.171Z,1012.26
2018-06-16T05:05:52.724Z,1012.25
2018-06-16T05:06:33.293Z,1012.26
2018-06-16T05:07:13.835Z,1012.25
2018-06-16T05:07:54.408Z,1012.23
2018-06-16T05:08:35.033Z,1012.24
2018-06-16T05:09:15.618Z,1012.25
2018-06-16T05:09:56.189Z,1012.26
2018-06-16T05:10:36.770Z,1012.24
2018-06-16T05:11:17.330Z,1012.24
2018-06-16T05:11:57.887Z,1012.23
2018-06-16T05:12:38.451Z,1012.26
2018-06-16T05:13:19.031Z,1012.26
2018-06-16T05:13:59.638Z,1012.28
2018-06-16T05:14:40.199Z,1012.23
2018-06-16T05:15:20.747Z,1012.22
2018-06-16T05:16:01.288Z,1012.26
2018-06-16T05:16:41.859Z,1012.27
2018-06-16T05:17:22.406Z,1012.22
2018-06-16T05:18:02.970Z,1012.25
2018-06-16T05:20:31.548Z,1012.29
2018-06-16T05:21:12.118Z,1012.28
2018-06-16T05:21:52.709Z,1012.27
2018-06-16T05:22:33.259Z,1012.29
2018-06-16T05:23:13.833Z,1012.3
2018-06-16T05:23:54.405Z,1012.29
2018-06-16T05:24:34.971Z,1012.28
2018-06-16T05:25:15.553Z,1012.27
2018-06-16T05:25:56.105Z,1012.25
2018-06-16T05:26:36.648Z,1012.29
2018-06-16T05:27:17.202Z,1012.28
2018-06-16T05:27:57.761Z,1012.25
2018-06-16T05:28:38.333Z,1012.26
2018-06-16T05:29:18.879Z,1012.27
2018-06-16T05:31:47.687Z,1012.31
2018-06-16T05:32:28.246Z,1012.3
2018-06-16T05:33:08.803Z,1012.29
2018-06-16T05:33:49.381Z,1012.28
2018-06-16T05:34:29.942Z,1012.27
2018-06-16T05:35:10.487Z,1012.26
2018-06-16T05:35:51.079Z,1012.24
2018-06-16T05:36:31.654Z,1012.25
2018-06-16T05:37:12.206Z,1012.24
2018-06-16T05:37:52.757Z,1012.24
2018-06-16T05:38:33.334Z,1012.24
2018-06-16T05:39:13.900Z,1012.23
2018-06-16T05:39:54.455Z,1012.23
2018-06-16T05:40:34.998Z,1012.24
2018-06-16T05:41:15.544Z,1012.24
2018-06-16T05:41:56.101Z,1012.24
2018-06-16T05:42:36.666Z,1012.25
2018-06-16T05:43:17.246Z,1012.25
2018-06-16T05:43:57.803Z,1012.28
2018-06-16T05:44:38.401Z,1012.29
2018-06-16T05:45:18.945Z,1012.3
2018-06-16T05:45:59.508Z,1012.29
2018-06-16T05:46:40.089Z,1012.32
2018-06-16T05:47:20.668Z,1012.34
2018-06-16T05:48:01.223Z,1012.35
2018-06-16T05:48:41.777Z,1012.35
2018-06-16T05:49:22.319Z,1012.33
2018-06-16T05:50:02.878Z,1012.33
2018-06-16T05:50:43.423Z,1012.35
2018-06-16T05:51:23.995Z,1012.38
2018-06-16T05:52:04.566Z,1012.39
2018-06-16T05:52:45.120Z,1012.35
2018-06-16T05:53:25.719Z,1012.31
2018-06-16T05:54:06.335Z,1012.36
2018-06-16T05:54:46.855Z,1012.36
2018-06-16T05:55:27.406Z,1012.34
2018-06-16T05:56:08.025Z,1012.35
2018-06-16T05:56:48.499Z,1012.33
2018-06-16T05:57:29.106Z,1012.35
2018-06-16T05:58:09.638Z,1012.34
2018-06-16T05:58:50.194Z,1012.37
2018-06-16T05:59:30.767Z,1012.4
2018-06-16T06:00:11.332Z,1012.34
2018-06-16T06:00:52.037Z,1012.37
2018-06-16T06:01:32.605Z,1012.37
2018-06-16T06:02:13.156Z,1012.39
2018-06-16T06:02:53.723Z,1012.41
2018-06-16T06:03:34.292Z,1012.39
2018-06-16T06:04:15.179Z,1012.4
2018-06-16T06:04:56.193Z,1012.42
2018-06-16T06:05:36.991Z,1012.4
2018-06-16T06:06:17.555Z,1012.41
2018-06-16T06:06:58.122Z,1012.43
2018-06-16T06:07:38.691Z,1012.41
2018-06-16T06:08:19.289Z,1012.4
2018-06-16T06:08:59.861Z,1012.42
2018-06-16T06:09:40.408Z,1012.41
2018-06-16T06:10:21.122Z,1012.42
2018-06-16T06:11:04.273Z,1012.4
2018-06-16T06:11:49.591Z,1012.46
2018-06-16T06:12:30.159Z,1012.42
2018-06-16T06:13:10.828Z,1012.46
2018-06-16T06:13:51.507Z,1012.46
2018-06-16T06:14:32.240Z,1012.48
2018-06-16T06:15:13.378Z,1012.48
2018-06-16T06:15:54.183Z,1012.5
2018-06-16T06:16:34.728Z,1012.5
2018-06-16T06:17:15.294Z,1012.45
2018-06-16T06:17:56.230Z,1012.47
2018-06-16T06:18:36.791Z,1012.47
2018-06-16T06:19:17.424Z,1012.45
2018-06-16T06:19:57.995Z,1012.47
2018-06-16T06:20:38.555Z,1012.49
2018-06-16T06:21:19.302Z,1012.5
2018-06-16T06:22:00.330Z,1012.5
2018-06-16T06:22:41.287Z,1012.5
2018-06-16T06:23:22.810Z,1012.5
2018-06-16T06:24:03.769Z,1012.49
2018-06-16T06:24:44.514Z,1012.54
2018-06-16T06:25:25.228Z,1012.49
2018-06-16T06:26:05.801Z,1012.51
2018-06-16T06:26:46.372Z,1012.53
2018-06-16T06:27:26.951Z,1012.51
2018-06-16T06:28:07.513Z,1012.5
2018-06-16T06:28:48.165Z,1012.48
2018-06-16T06:29:28.740Z,1012.51
2018-06-16T06:30:09.591Z,1012.52
2018-06-16T06:30:50.348Z,1012.5
2018-06-16T06:31:31.379Z,1012.51
2018-06-16T06:32:12.005Z,1012.49
2018-06-16T06:32:52.559Z,1012.5
2018-06-16T06:33:33.119Z,1012.48
2018-06-16T06:34:13.954Z,1012.5
2018-06-16T06:34:54.896Z,1012.52
2018-06-16T06:35:36.033Z,1012.51
2018-06-16T06:36:16.773Z,1012.46
2018-06-16T06:36:58.106Z,1012.45
2018-06-16T06:37:38.747Z,1012.48
2018-06-16T06:38:19.495Z,1012.48
2018-06-16T06:39:00.047Z,1012.46
2018-06-16T06:39:41.045Z,1012.44
2018-06-16T06:40:21.645Z,1012.46
2018-06-16T06:41:02.229Z,1012.45
2018-06-16T06:41:42.785Z,1012.43
2018-06-16T06:42:23.381Z,1012.47
2018-06-16T06:43:04.475Z,1012.45
2018-06-16T06:43:45.478Z,1012.46
2018-06-16T06:44:26.306Z,1012.49
2018-06-16T06:45:07.259Z,1012.46
2018-06-16T06:45:48.270Z,1012.49
2018-06-16T06:46:29.296Z,1012.46
2018-06-16T06:47:10.856Z,1012.46
2018-06-16T06:47:51.808Z,1012.49
2018-06-16T06:48:33.384Z,1012.48
2018-06-16T06:49:14.147Z,1012.48
2018-06-16T06:49:55.206Z,1012.44
2018-06-16T06:50:36.804Z,1012.47
2018-06-16T06:51:17.741Z,1012.45
2018-06-16T06:51:58.801Z,1012.46
2018-06-16T06:52:39.865Z,1012.46
2018-06-16T06:53:20.938Z,1012.44
2018-06-16T06:54:01.978Z,1012.46
2018-06-16T06:54:43.042Z,1012.44
2018-06-16T06:55:23.929Z,1012.42
2018-06-16T06:56:04.486Z,1012.47
2018-06-16T06:56:45.045Z,1012.49
2018-06-16T06:57:25.630Z,1012.47
2018-06-16T06:58:06.174Z,1012.47
2018-06-16T06:58:46.772Z,1012.48
2018-06-16T06:59:27.341Z,1012.49
2018-06-16T07:00:07.891Z,1012.49
2018-06-16T07:00:48.492Z,1012.47
2018-06-16T07:01:29.061Z,1012.49
2018-06-16T07:02:09.886Z,1012.46
2018-06-16T07:02:50.673Z,1012.46
2018-06-16T07:03:31.486Z,1012.47
2018-06-16T07:04:12.039Z,1012.48
2018-06-16T07:04:52.618Z,1012.5
2018-06-16T07:05:33.313Z,1012.47
2018-06-16T07:06:13.873Z,1012.48
2018-06-16T07:06:54.440Z,1012.53
2018-06-16T07:07:35.044Z,1012.5
2018-06-16T07:08:15.693Z,1012.48
2018-06-16T07:08:56.441Z,1012.49
2018-06-16T07:09:37.384Z,1012.46
2018-06-16T07:10:18.117Z,1012.47
2018-06-16T07:10:58.870Z,1012.49
2018-06-16T07:11:39.292Z,1012.48
2018-06-16T07:12:20.387Z,1012.44
2018-06-16T07:13:01.047Z,1012.5
2018-06-16T07:13:41.804Z,1012.45
2018-06-16T07:14:22.377Z,1012.44
2018-06-16T07:15:02.937Z,1012.43
2018-06-16T07:15:43.516Z,1012.48
2018-06-16T07:16:24.071Z,1012.45
2018-06-16T07:17:04.672Z,1012.46
2018-06-16T07:17:45.224Z,1012.42
2018-06-16T07:18:25.790Z,1012.41
2018-06-16T07:19:06.367Z,1012.43
2018-06-16T07:19:47.070Z,1012.43
2018-06-16T07:20:28.078Z,1012.42
2018-06-16T07:21:09.125Z,1012.45
2018-06-16T07:21:50.161Z,1012.43
2018-06-16T07:22:31.272Z,1012.41
2018-06-16T07:23:12.899Z,1012.39
2018-06-16T07:23:54.131Z,1012.38
2018-06-16T07:24:35.209Z,1012.41
2018-06-16T07:25:16.150Z,1012.4
2018-06-16T07:25:57.101Z,1012.39
2018-06-16T07:26:38.122Z,1012.37
2018-06-16T07:27:19.326Z,1012.4
2018-06-16T07:28:00.335Z,1012.41
2018-06-16T07:28:41.314Z,1012.42
2018-06-16T07:29:22.291Z,1012.38
2018-06-16T07:30:03.142Z,1012.38
2018-06-16T07:30:44.981Z,1012.41
2018-06-16T07:31:25.875Z,1012.41
2018-06-16T07:32:06.844Z,1012.41
2018-06-16T07:32:47.706Z,1012.41
2018-06-16T07:33:30.884Z,1012.4
2018-06-16T07:34:10.316Z,1012.39
2018-06-16T07:34:51.159Z,1012.39
2018-06-16T07:35:32.135Z,1012.36
2018-06-16T07:36:13.140Z,1012.39
2018-06-16T07:36:54.033Z,1012.41
2018-06-16T07:37:35.061Z,1012.4
2018-06-16T07:38:16.165Z,1012.39
2018-06-16T07:38:57.195Z,1012.42
2018-06-16T07:39:38.336Z,1012.41
2018-06-16T07:40:19.464Z,1012.41
2018-06-16T07:41:00.564Z,1012.37
2018-06-16T07:41:41.613Z,1012.4
2018-06-16T07:42:22.741Z,1012.41
2018-06-16T07:43:03.698Z,1012.43
2018-06-16T07:43:44.730Z,1012.37
2018-06-16T07:44:25.711Z,1012.39
2018-06-16T07:45:06.679Z,1012.42
2018-06-16T07:45:47.729Z,1012.41
2018-06-16T07:46:28.826Z,1012.43
2018-06-16T07:47:09.943Z,1012.42
2018-06-16T07:47:50.941Z,1012.46
2018-06-16T07:48:31.953Z,1012.43
2018-06-16T07:49:12.996Z,1012.43
2018-06-16T07:49:54.024Z,1012.43
2018-06-16T07:50:35.122Z,1012.45
2018-06-16T07:51:16.177Z,1012.48
2018-06-16T07:51:57.228Z,1012.55
2018-06-16T07:52:38.215Z,1012.6
2018-06-16T07:53:19.352Z,1012.5
2018-06-16T07:54:00.430Z,1012.48
2018-06-16T07:54:41.425Z,1012.5
2018-06-16T07:55:22.537Z,1012.5
2018-06-16T07:56:03.660Z,1012.52
2018-06-16T07:56:44.786Z,1012.5
2018-06-16T07:57:25.794Z,1012.55
2018-06-16T07:58:06.867Z,1012.48
2018-06-16T07:58:47.902Z,1012.5
2018-06-16T07:59:28.972Z,1012.54
2018-06-16T08:00:10.052Z,1012.52
2018-06-16T08:00:51.076Z,1012.55
2018-06-16T08:01:32.172Z,1012.58
2018-06-16T08:02:13.126Z,1012.56
2018-06-16T08:02:54.151Z,1012.56
2018-06-16T08:03:35.216Z,1012.52
2018-06-16T08:06:03.460Z,1012.56
2018-06-16T08:06:44.024Z,1012.53
2018-06-16T08:08:41.686Z,1012.54
2018-06-16T08:09:22.249Z,1012.51
2018-06-16T08:10:02.825Z,1012.53
2018-06-16T08:10:43.379Z,1012.48
2018-06-16T08:11:23.928Z,1012.5
2018-06-16T08:12:04.503Z,1012.51
2018-06-16T08:12:45.076Z,1012.46
2018-06-16T08:13:25.614Z,1012.49
2018-06-16T08:14:06.197Z,1012.48
2018-06-16T08:14:46.754Z,1012.47
2018-06-16T08:15:27.407Z,1012.49
2018-06-16T08:16:07.978Z,1012.49
2018-06-16T08:16:48.537Z,1012.49
2018-06-16T08:17:29.113Z,1012.49
2018-06-16T08:18:09.721Z,1012.47
2018-06-16T08:18:50.209Z,1012.42
2018-06-16T08:19:30.783Z,1012.45
2018-06-16T08:20:11.371Z,1012.45
2018-06-16T08:20:51.941Z,1012.48
2018-06-16T08:21:32.521Z,1012.45
2018-06-16T08:22:13.086Z,1012.43
2018-06-16T08:22:53.715Z,1012.45
2018-06-16T08:23:34.254Z,1012.43
2018-06-16T08:24:14.797Z,1012.42